Rankings de siempre
Mejores tiempos personales válidos de atleta a través de todos los eventos y temporadas. Cada atleta aparece una vez por división.
Busca por nombre y abre la página donde está clasificado este récord de división.
104,221 atletas clasificados
| Pos. | Pos. AG | Atleta | Nacionalidad | Categoría de edad | TiempoMejor tiempo | Diferencia |
|---|---|---|---|---|---|---|
| 10551 | #2909 | Sarahjane ColliarGBR · W 25-29 · AG #2909 | GBR | W 25-29 | 1:17:54 | +38:18 |
| 10552 | #1451 | Lea LambertUSA · W 16-24 · AG #1451 | USA | W 16-24 | 1:17:54 | +38:18 |
| 10553 | #1896 | Ashleigh WaldenAUS · W 35-39 · AG #1896 | AUS | W 35-39 | 1:17:54 | +38:18 |
| 10554 | #2852 | Rebekah FullerAUS · W 30-34 · AG #2852 | AUS | W 30-34 | 1:17:54 | +38:18 |
| 10555 | #1897 | Jessica GillespieAUS · W 35-39 · AG #1897 | AUS | W 35-39 | 1:17:54 | +38:18 |
| 10556 | #544 | Sandra ChetaneauFRA · W 45-49 · AG #544 | FRA | W 45-49 | 1:17:54 | +38:18 |
| 10557 | #2908 | Blanche FrancheterreFRA · W 25-29 · AG #2908 | FRA | W 25-29 | 1:17:54 | +38:18 |
| 10558 | #1453 | Beth Burgin LynchGBR · W 16-24 · AG #1453 | GBR | W 16-24 | 1:17:54 | +38:18 |
| 10559 | #2910 | Anne NoordhoffNED · W 25-29 · AG #2910 | NED | W 25-29 | 1:17:55 | +38:19 |
| 10560 | #2853 | Julia JoyesCAN · W 30-34 · AG #2853 | CAN | W 30-34 | 1:17:55 | +38:19 |
| 10561 | #1219 | Jess ContrerasUSA · W 40-44 · AG #1219 | USA | W 40-44 | 1:17:55 | +38:19 |
| 10562 | #1221 | Sarah MithaniGBR · W 40-44 · AG #1221 | GBR | W 40-44 | 1:17:55 | +38:19 |
| 10563 | #1222 | Robin De ValkNED · W 40-44 · AG #1222 | NED | W 40-44 | 1:17:55 | +38:19 |
| 10564 | #545 | Rachel Barber-BrockGBR · W 45-49 · AG #545 | GBR | W 45-49 | 1:17:55 | +38:19 |
| 10565 | #2911 | Shannon RasdaleIRL · W 25-29 · AG #2911 | IRL | W 25-29 | 1:17:55 | +38:19 |
| 10566 | #1454 | Clara DavidFRA · W 16-24 · AG #1454 | FRA | W 16-24 | 1:17:55 | +38:19 |
| 10567 | #1902 | Tone StienNOR · W 35-39 · AG #1902 | NOR | W 35-39 | 1:17:55 | +38:19 |
| 10568 | #171 | Anne BaroinFRA · W 50-54 · AG #171 | FRA | W 50-54 | 1:17:55 | +38:19 |
| 10569 | #2912 | Wen WenCHN · W 25-29 · AG #2912 | CHN | W 25-29 | 1:17:55 | +38:19 |
| 10570 | #2855 | Gillian WardGBR · W 30-34 · AG #2855 | GBR | W 30-34 | 1:17:55 | +38:19 |
| 10571 | #1456 | Luisa CervantesGER · W 16-24 · AG #1456 | GER | W 16-24 | 1:17:55 | +38:19 |
| 10572 | #1457 | Kiah LucasGIB · W 16-24 · AG #1457 | GIB | W 16-24 | 1:17:55 | +38:19 |
| 10573 | #2915 | Dupla MargotFRA · W 25-29 · AG #2915 | FRA | W 25-29 | 1:17:55 | +38:19 |
| 10574 | #1455 | Lucy RogersonGBR · W 16-24 · AG #1455 | GBR | W 16-24 | 1:17:55 | +38:19 |
| 10575 | #2856 | Rebecca NicholsonNED · W 30-34 · AG #2856 | NED | W 30-34 | 1:17:55 | +38:19 |
Página 423 de 4,169